Portada
METAR-TAF:

METAR-TAF

Aeroports :

Aeroport d'Oujda-Angads

Oujda, Marroc

latitud: 34-47N, longitud: 001-56W, altitud: 468 m

Observació

L'informe es va fer fa 6 minuts, a les 17:00 UTC
Vent 18 kt del Nord-Oest
Temperatura 16°C
Humitat 77%
Pressió 1011 hPa
Visibilitat: 8000 m
Escasses núvols a una alçada de 2600 ft
Núvols disperses a una alçada de 13000 ft

METAR: GMFO 261700Z 32018KT 8000 FEW026 SCT130 16/12 Q1011 NOSIG

Hora: 17:06 (17:06 UTC)

Pronòstic

L'informe es va fer fa 6 hores i 6 minuts, a les 11:00 UTC
Pronòstic vàlid del 26 a les 12 UTC al 27 a les 18 UTC
Vent 16 kt del Nord
Visibilitat 10 km o més
Núvols disperses a una alçada de 2600 ft
Cel ennuvolat a una alçada de 10000 ft
Temporalment
l' 26 a les 22 UTC al 27 a les 10 UTC
Cel ennuvolat a una alçada de 2000 ft
Escasses núvols a una alçada de 3300 ft, Cumulonimbus.
Cel ennuvolat a una alçada de 9000 ft
xàfecs de pluja

TAF: GMFO 261100Z 2612/2718 36016KT 9999 SCT026 BKN100 TEMPO 2622/2710 SHRA BKN020 FEW033CB BKN090

Observacions i pronòstics meteorològics de més de 4000 aeroports (METAR i TAF).

Les estacions disponibles són els punts grocs i vermells al mapa.

Posi el ratolí al punt desitjat per veure el nom de l'estació.

Feu clic per veure les observacions i els pronòstics meteorològics.

Per canviar el mapa: feu clic els botons verds amb una creu de color negre per apropar; al botó verd amb un guió per allunyar la imatge; o en les fletxes verdes per a mapes adjacents.


METAR-TAF: